sensor_id;sensor_type;location;lat;lon;timestamp;P1;durP1;ratioP1;P2;durP2;ratioP2
7181;SDS011;3632;42.724;23.298;2023-03-14T00:00:34;34.80;;;19.43;;
7181;SDS011;3632;42.724;23.298;2023-03-14T00:03:02;30.30;;;18.17;;
7181;SDS011;3632;42.724;23.298;2023-03-14T00:05:29;30.53;;;17.40;;
7181;SDS011;3632;42.724;23.298;2023-03-14T00:07:55;28.33;;;16.87;;
7181;SDS011;3632;42.724;23.298;2023-03-14T00:10:22;27.10;;;15.97;;
7181;SDS011;3632;42.724;23.298;2023-03-14T00:12:49;17.93;;;12.80;;
7181;SDS011;3632;42.724;23.298;2023-03-14T00:15:16;19.60;;;12.60;;
7181;SDS011;3632;42.724;23.298;2023-03-14T00:17:43;16.63;;;11.20;;
7181;SDS011;3632;42.724;23.298;2023-03-14T00:20:12;16.83;;;10.97;;
7181;SDS011;3632;42.724;23.298;2023-03-14T00:22:39;14.37;;;9.17;;
7181;SDS011;3632;42.724;23.298;2023-03-14T00:25:07;10.53;;;6.70;;
7181;SDS011;3632;42.724;23.298;2023-03-14T00:27:35;9.73;;;6.63;;
7181;SDS011;3632;42.724;23.298;2023-03-14T00:30:02;9.07;;;6.30;;
7181;SDS011;3632;42.724;23.298;2023-03-14T00:32:30;10.03;;;6.13;;
7181;SDS011;3632;42.724;23.298;2023-03-14T00:34:57;9.23;;;5.83;;
7181;SDS011;3632;42.724;23.298;2023-03-14T00:37:25;6.87;;;5.30;;
7181;SDS011;3632;42.724;23.298;2023-03-14T00:39:51;5.97;;;5.07;;
7181;SDS011;3632;42.724;23.298;2023-03-14T00:42:18;8.00;;;5.23;;
7181;SDS011;3632;42.724;23.298;2023-03-14T00:44:45;8.43;;;5.60;;
7181;SDS011;3632;42.724;23.298;2023-03-14T00:47:12;9.00;;;5.50;;
7181;SDS011;3632;42.724;23.298;2023-03-14T00:49:38;11.40;;;8.10;;
7181;SDS011;3632;42.724;23.298;2023-03-14T00:52:08;7.93;;;5.67;;
7181;SDS011;3632;42.724;23.298;2023-03-14T00:54:36;9.07;;;5.37;;
7181;SDS011;3632;42.724;23.298;2023-03-14T00:57:03;7.77;;;5.40;;
7181;SDS011;3632;42.724;23.298;2023-03-14T00:59:30;7.57;;;4.70;;
7181;SDS011;3632;42.724;23.298;2023-03-14T01:01:56;8.27;;;5.53;;
7181;SDS011;3632;42.724;23.298;2023-03-14T01:04:23;7.13;;;4.93;;
7181;SDS011;3632;42.724;23.298;2023-03-14T01:06:50;7.53;;;4.73;;
7181;SDS011;3632;42.724;23.298;2023-03-14T01:09:17;7.27;;;5.17;;
7181;SDS011;3632;42.724;23.298;2023-03-14T01:11:45;6.83;;;5.50;;
7181;SDS011;3632;42.724;23.298;2023-03-14T01:14:13;7.90;;;4.73;;
7181;SDS011;3632;42.724;23.298;2023-03-14T01:16:40;6.53;;;4.97;;
7181;SDS011;3632;42.724;23.298;2023-03-14T01:19:07;10.83;;;6.23;;
7181;SDS011;3632;42.724;23.298;2023-03-14T01:21:35;16.53;;;11.10;;
7181;SDS011;3632;42.724;23.298;2023-03-14T01:24:04;20.30;;;12.77;;
7181;SDS011;3632;42.724;23.298;2023-03-14T01:26:32;22.13;;;14.70;;
7181;SDS011;3632;42.724;23.298;2023-03-14T01:29:02;24.50;;;15.20;;
7181;SDS011;3632;42.724;23.298;2023-03-14T01:31:29;24.93;;;17.13;;
7181;SDS011;3632;42.724;23.298;2023-03-14T01:33:56;25.37;;;16.87;;
7181;SDS011;3632;42.724;23.298;2023-03-14T01:36:23;26.57;;;15.93;;
7181;SDS011;3632;42.724;23.298;2023-03-14T01:38:49;26.90;;;16.13;;
7181;SDS011;3632;42.724;23.298;2023-03-14T01:41:18;26.40;;;15.97;;
7181;SDS011;3632;42.724;23.298;2023-03-14T01:43:46;24.13;;;15.97;;
7181;SDS011;3632;42.724;23.298;2023-03-14T01:46:21;25.13;;;16.40;;
7181;SDS011;3632;42.724;23.298;2023-03-14T01:49:04;23.63;;;15.27;;
7181;SDS011;3632;42.724;23.298;2023-03-14T01:51:36;23.77;;;14.50;;
7181;SDS011;3632;42.724;23.298;2023-03-14T01:54:10;23.73;;;14.43;;
7181;SDS011;3632;42.724;23.298;2023-03-14T01:56:41;21.40;;;14.10;;
7181;SDS011;3632;42.724;23.298;2023-03-14T01:59:11;20.40;;;13.23;;
7181;SDS011;3632;42.724;23.298;2023-03-14T02:01:41;20.30;;;13.10;;
7181;SDS011;3632;42.724;23.298;2023-03-14T02:04:11;21.17;;;13.53;;
7181;SDS011;3632;42.724;23.298;2023-03-14T02:06:41;15.63;;;11.53;;
7181;SDS011;3632;42.724;23.298;2023-03-14T02:09:13;19.33;;;13.10;;
7181;SDS011;3632;42.724;23.298;2023-03-14T02:11:40;21.20;;;13.07;;
7181;SDS011;3632;42.724;23.298;2023-03-14T02:14:08;21.80;;;13.80;;
7181;SDS011;3632;42.724;23.298;2023-03-14T02:16:44;20.60;;;12.93;;
7181;SDS011;3632;42.724;23.298;2023-03-14T02:19:10;21.17;;;14.33;;
7181;SDS011;3632;42.724;23.298;2023-03-14T02:21:42;17.33;;;12.77;;
7181;SDS011;3632;42.724;23.298;2023-03-14T02:24:20;20.73;;;12.83;;
7181;SDS011;3632;42.724;23.298;2023-03-14T02:27:06;20.07;;;13.30;;
7181;SDS011;3632;42.724;23.298;2023-03-14T02:29:34;19.50;;;12.57;;
7181;SDS011;3632;42.724;23.298;2023-03-14T02:32:04;18.60;;;13.20;;
7181;SDS011;3632;42.724;23.298;2023-03-14T02:34:32;21.27;;;13.10;;
7181;SDS011;3632;42.724;23.298;2023-03-14T02:37:00;20.27;;;13.70;;
7181;SDS011;3632;42.724;23.298;2023-03-14T02:39:29;16.83;;;11.50;;
7181;SDS011;3632;42.724;23.298;2023-03-14T02:42:01;19.57;;;13.10;;
7181;SDS011;3632;42.724;23.298;2023-03-14T02:44:29;18.67;;;13.00;;
7181;SDS011;3632;42.724;23.298;2023-03-14T02:46:56;16.73;;;12.53;;
7181;SDS011;3632;42.724;23.298;2023-03-14T02:49:23;17.57;;;12.13;;
7181;SDS011;3632;42.724;23.298;2023-03-14T02:51:53;17.97;;;12.33;;
7181;SDS011;3632;42.724;23.298;2023-03-14T02:54:20;18.30;;;12.83;;
7181;SDS011;3632;42.724;23.298;2023-03-14T02:56:47;19.93;;;13.77;;
7181;SDS011;3632;42.724;23.298;2023-03-14T02:59:13;21.57;;;14.57;;
7181;SDS011;3632;42.724;23.298;2023-03-14T03:01:41;22.20;;;13.70;;
7181;SDS011;3632;42.724;23.298;2023-03-14T03:04:08;21.43;;;13.13;;
7181;SDS011;3632;42.724;23.298;2023-03-14T03:06:35;18.43;;;12.80;;
7181;SDS011;3632;42.724;23.298;2023-03-14T03:09:02;17.60;;;12.07;;
7181;SDS011;3632;42.724;23.298;2023-03-14T03:11:29;16.33;;;11.83;;
7181;SDS011;3632;42.724;23.298;2023-03-14T03:13:56;19.00;;;12.87;;
7181;SDS011;3632;42.724;23.298;2023-03-14T03:16:23;17.10;;;12.07;;
7181;SDS011;3632;42.724;23.298;2023-03-14T03:18:51;17.90;;;12.73;;
7181;SDS011;3632;42.724;23.298;2023-03-14T03:21:18;19.27;;;12.80;;
7181;SDS011;3632;42.724;23.298;2023-03-14T03:23:48;15.83;;;11.70;;
7181;SDS011;3632;42.724;23.298;2023-03-14T03:26:15;22.00;;;13.13;;
7181;SDS011;3632;42.724;23.298;2023-03-14T03:28:41;18.80;;;13.20;;
7181;SDS011;3632;42.724;23.298;2023-03-14T03:31:09;22.03;;;13.80;;
7181;SDS011;3632;42.724;23.298;2023-03-14T03:33:37;19.93;;;13.70;;
7181;SDS011;3632;42.724;23.298;2023-03-14T03:36:06;23.20;;;13.67;;
7181;SDS011;3632;42.724;23.298;2023-03-14T03:38:34;22.60;;;14.60;;
7181;SDS011;3632;42.724;23.298;2023-03-14T03:41:01;19.20;;;13.20;;
7181;SDS011;3632;42.724;23.298;2023-03-14T03:43:29;22.80;;;15.00;;
7181;SDS011;3632;42.724;23.298;2023-03-14T03:45:56;21.53;;;15.53;;
7181;SDS011;3632;42.724;23.298;2023-03-14T03:48:23;30.30;;;17.50;;
7181;SDS011;3632;42.724;23.298;2023-03-14T03:50:50;25.23;;;15.83;;
7181;SDS011;3632;42.724;23.298;2023-03-14T03:53:18;22.67;;;15.47;;
7181;SDS011;3632;42.724;23.298;2023-03-14T03:55:45;21.10;;;14.63;;
7181;SDS011;3632;42.724;23.298;2023-03-14T03:58:11;22.60;;;15.47;;
7181;SDS011;3632;42.724;23.298;2023-03-14T04:00:38;18.53;;;13.30;;
7181;SDS011;3632;42.724;23.298;2023-03-14T04:03:05;21.03;;;13.00;;
7181;SDS011;3632;42.724;23.298;2023-03-14T04:05:31;18.70;;;13.03;;
7181;SDS011;3632;42.724;23.298;2023-03-14T04:07:59;17.97;;;11.37;;
7181;SDS011;3632;42.724;23.298;2023-03-14T04:10:27;19.77;;;12.13;;
7181;SDS011;3632;42.724;23.298;2023-03-14T04:12:54;20.57;;;12.93;;
7181;SDS011;3632;42.724;23.298;2023-03-14T04:15:21;20.57;;;13.33;;
7181;SDS011;3632;42.724;23.298;2023-03-14T04:17:48;21.33;;;14.07;;
7181;SDS011;3632;42.724;23.298;2023-03-14T04:20:15;28.10;;;17.07;;
7181;SDS011;3632;42.724;23.298;2023-03-14T04:22:41;27.23;;;15.00;;
7181;SDS011;3632;42.724;23.298;2023-03-14T04:25:08;25.97;;;15.50;;
7181;SDS011;3632;42.724;23.298;2023-03-14T04:27:36;25.43;;;16.30;;
7181;SDS011;3632;42.724;23.298;2023-03-14T04:30:03;27.80;;;17.57;;
7181;SDS011;3632;42.724;23.298;2023-03-14T04:32:31;32.63;;;19.03;;
7181;SDS011;3632;42.724;23.298;2023-03-14T04:34:57;32.30;;;20.77;;
7181;SDS011;3632;42.724;23.298;2023-03-14T04:37:24;39.33;;;21.97;;
7181;SDS011;3632;42.724;23.298;2023-03-14T04:39:51;34.47;;;21.53;;
7181;SDS011;3632;42.724;23.298;2023-03-14T04:42:18;34.80;;;22.47;;
7181;SDS011;3632;42.724;23.298;2023-03-14T04:44:46;36.50;;;21.60;;
7181;SDS011;3632;42.724;23.298;2023-03-14T04:47:14;44.70;;;25.60;;
7181;SDS011;3632;42.724;23.298;2023-03-14T04:49:41;46.17;;;27.93;;
7181;SDS011;3632;42.724;23.298;2023-03-14T04:52:07;46.40;;;28.77;;
7181;SDS011;3632;42.724;23.298;2023-03-14T04:54:34;41.17;;;24.60;;
7181;SDS011;3632;42.724;23.298;2023-03-14T04:57:01;38.57;;;24.00;;
7181;SDS011;3632;42.724;23.298;2023-03-14T04:59:28;33.93;;;23.13;;
7181;SDS011;3632;42.724;23.298;2023-03-14T05:01:56;41.83;;;26.33;;
7181;SDS011;3632;42.724;23.298;2023-03-14T05:04:23;42.77;;;26.77;;
7181;SDS011;3632;42.724;23.298;2023-03-14T05:06:50;43.07;;;24.30;;
7181;SDS011;3632;42.724;23.298;2023-03-14T05:09:16;43.97;;;24.50;;
7181;SDS011;3632;42.724;23.298;2023-03-14T05:11:43;37.20;;;23.33;;
7181;SDS011;3632;42.724;23.298;2023-03-14T05:14:10;43.77;;;24.20;;
7181;SDS011;3632;42.724;23.298;2023-03-14T05:16:37;41.50;;;25.70;;
7181;SDS011;3632;42.724;23.298;2023-03-14T05:19:05;38.03;;;22.03;;
7181;SDS011;3632;42.724;23.298;2023-03-14T05:21:32;39.10;;;25.17;;
7181;SDS011;3632;42.724;23.298;2023-03-14T05:23:58;53.73;;;39.33;;
7181;SDS011;3632;42.724;23.298;2023-03-14T05:26:25;47.23;;;36.20;;
7181;SDS011;3632;42.724;23.298;2023-03-14T05:28:52;31.70;;;20.20;;
7181;SDS011;3632;42.724;23.298;2023-03-14T05:31:18;27.23;;;19.50;;
7181;SDS011;3632;42.724;23.298;2023-03-14T05:33:45;20.30;;;14.13;;
7181;SDS011;3632;42.724;23.298;2023-03-14T05:36:13;24.60;;;13.67;;
7181;SDS011;3632;42.724;23.298;2023-03-14T05:38:40;20.03;;;14.33;;
7181;SDS011;3632;42.724;23.298;2023-03-14T05:41:07;21.80;;;15.40;;
7181;SDS011;3632;42.724;23.298;2023-03-14T05:43:34;22.10;;;13.43;;
7181;SDS011;3632;42.724;23.298;2023-03-14T05:46:00;20.40;;;13.90;;
7181;SDS011;3632;42.724;23.298;2023-03-14T05:48:27;24.23;;;14.70;;
7181;SDS011;3632;42.724;23.298;2023-03-14T05:50:54;19.97;;;14.30;;
7181;SDS011;3632;42.724;23.298;2023-03-14T05:53:23;26.70;;;15.57;;
7181;SDS011;3632;42.724;23.298;2023-03-14T05:55:50;28.03;;;17.07;;
7181;SDS011;3632;42.724;23.298;2023-03-14T05:58:18;26.27;;;15.70;;
7181;SDS011;3632;42.724;23.298;2023-03-14T06:00:44;24.27;;;14.23;;
7181;SDS011;3632;42.724;23.298;2023-03-14T06:03:11;20.80;;;12.90;;
7181;SDS011;3632;42.724;23.298;2023-03-14T06:05:38;19.03;;;12.70;;
7181;SDS011;3632;42.724;23.298;2023-03-14T06:08:05;19.27;;;13.10;;
7181;SDS011;3632;42.724;23.298;2023-03-14T06:10:34;22.90;;;13.70;;
7181;SDS011;3632;42.724;23.298;2023-03-14T06:13:01;23.17;;;16.17;;
7181;SDS011;3632;42.724;23.298;2023-03-14T06:15:27;26.40;;;16.60;;
7181;SDS011;3632;42.724;23.298;2023-03-14T06:17:54;28.00;;;16.27;;
7181;SDS011;3632;42.724;23.298;2023-03-14T06:20:21;32.47;;;17.73;;
7181;SDS011;3632;42.724;23.298;2023-03-14T06:22:48;36.57;;;17.77;;
7181;SDS011;3632;42.724;23.298;2023-03-14T06:25:15;27.87;;;16.97;;
7181;SDS011;3632;42.724;23.298;2023-03-14T06:27:43;22.27;;;15.07;;
7181;SDS011;3632;42.724;23.298;2023-03-14T06:30:11;24.93;;;15.47;;
7181;SDS011;3632;42.724;23.298;2023-03-14T06:32:38;18.33;;;12.40;;
7181;SDS011;3632;42.724;23.298;2023-03-14T06:35:05;20.37;;;13.07;;
7181;SDS011;3632;42.724;23.298;2023-03-14T06:37:32;23.10;;;11.77;;
7181;SDS011;3632;42.724;23.298;2023-03-14T06:39:58;21.20;;;12.77;;
7181;SDS011;3632;42.724;23.298;2023-03-14T06:42:25;19.80;;;12.40;;
7181;SDS011;3632;42.724;23.298;2023-03-14T06:44:53;25.83;;;12.90;;
7181;SDS011;3632;42.724;23.298;2023-03-14T06:47:20;22.07;;;13.47;;
7181;SDS011;3632;42.724;23.298;2023-03-14T06:49:47;21.70;;;13.97;;
7181;SDS011;3632;42.724;23.298;2023-03-14T06:52:13;25.33;;;13.37;;
7181;SDS011;3632;42.724;23.298;2023-03-14T06:54:40;22.13;;;14.17;;
7181;SDS011;3632;42.724;23.298;2023-03-14T06:57:07;25.43;;;13.83;;
7181;SDS011;3632;42.724;23.298;2023-03-14T06:59:33;23.67;;;14.70;;
7181;SDS011;3632;42.724;23.298;2023-03-14T07:02:02;23.57;;;13.93;;
7181;SDS011;3632;42.724;23.298;2023-03-14T07:04:28;20.37;;;13.33;;
7181;SDS011;3632;42.724;23.298;2023-03-14T07:06:55;18.17;;;13.30;;
7181;SDS011;3632;42.724;23.298;2023-03-14T07:09:22;20.47;;;13.30;;
7181;SDS011;3632;42.724;23.298;2023-03-14T07:11:48;21.97;;;14.13;;
7181;SDS011;3632;42.724;23.298;2023-03-14T07:14:15;21.57;;;12.93;;
7181;SDS011;3632;42.724;23.298;2023-03-14T07:16:42;18.03;;;11.93;;
7181;SDS011;3632;42.724;23.298;2023-03-14T07:19:11;15.03;;;11.50;;
7181;SDS011;3632;42.724;23.298;2023-03-14T07:21:38;19.47;;;12.27;;
7181;SDS011;3632;42.724;23.298;2023-03-14T07:24:05;18.90;;;11.83;;
7181;SDS011;3632;42.724;23.298;2023-03-14T07:26:32;19.13;;;11.93;;
7181;SDS011;3632;42.724;23.298;2023-03-14T07:28:59;17.20;;;11.50;;
7181;SDS011;3632;42.724;23.298;2023-03-14T07:31:28;20.57;;;12.20;;
7181;SDS011;3632;42.724;23.298;2023-03-14T07:33:55;15.47;;;11.23;;
7181;SDS011;3632;42.724;23.298;2023-03-14T07:36:23;23.70;;;12.63;;
7181;SDS011;3632;42.724;23.298;2023-03-14T07:38:50;15.60;;;12.30;;
7181;SDS011;3632;42.724;23.298;2023-03-14T07:41:17;32.30;;;21.10;;
7181;SDS011;3632;42.724;23.298;2023-03-14T07:43:45;17.77;;;13.80;;
7181;SDS011;3632;42.724;23.298;2023-03-14T07:46:12;21.10;;;13.10;;
7181;SDS011;3632;42.724;23.298;2023-03-14T07:48:39;18.20;;;13.50;;
7181;SDS011;3632;42.724;23.298;2023-03-14T07:51:06;19.97;;;13.70;;
7181;SDS011;3632;42.724;23.298;2023-03-14T07:53:34;21.47;;;13.60;;
7181;SDS011;3632;42.724;23.298;2023-03-14T07:56:01;20.40;;;14.70;;
7181;SDS011;3632;42.724;23.298;2023-03-14T07:58:28;24.83;;;14.63;;
7181;SDS011;3632;42.724;23.298;2023-03-14T08:00:54;24.83;;;14.30;;
7181;SDS011;3632;42.724;23.298;2023-03-14T08:03:21;21.30;;;14.30;;
7181;SDS011;3632;42.724;23.298;2023-03-14T08:05:48;19.20;;;14.10;;
7181;SDS011;3632;42.724;23.298;2023-03-14T08:08:16;24.43;;;13.93;;
7181;SDS011;3632;42.724;23.298;2023-03-14T08:10:45;21.03;;;14.37;;
7181;SDS011;3632;42.724;23.298;2023-03-14T08:13:12;24.13;;;13.47;;
7181;SDS011;3632;42.724;23.298;2023-03-14T08:15:39;23.10;;;13.10;;
7181;SDS011;3632;42.724;23.298;2023-03-14T08:18:06;19.70;;;12.13;;
7181;SDS011;3632;42.724;23.298;2023-03-14T08:20:32;17.70;;;11.33;;
7181;SDS011;3632;42.724;23.298;2023-03-14T08:23:00;17.53;;;10.03;;
7181;SDS011;3632;42.724;23.298;2023-03-14T08:25:27;17.87;;;9.10;;
7181;SDS011;3632;42.724;23.298;2023-03-14T08:27:55;14.93;;;8.97;;
7181;SDS011;3632;42.724;23.298;2023-03-14T08:30:22;15.73;;;8.13;;
7181;SDS011;3632;42.724;23.298;2023-03-14T08:32:49;10.90;;;7.77;;
7181;SDS011;3632;42.724;23.298;2023-03-14T08:35:16;10.97;;;6.87;;
7181;SDS011;3632;42.724;23.298;2023-03-14T08:37:43;15.43;;;9.90;;
7181;SDS011;3632;42.724;23.298;2023-03-14T08:40:10;11.40;;;7.97;;
7181;SDS011;3632;42.724;23.298;2023-03-14T08:42:38;10.73;;;8.60;;
7181;SDS011;3632;42.724;23.298;2023-03-14T08:45:07;10.37;;;8.17;;
7181;SDS011;3632;42.724;23.298;2023-03-14T08:47:36;13.40;;;8.83;;
7181;SDS011;3632;42.724;23.298;2023-03-14T08:50:03;11.83;;;8.23;;
7181;SDS011;3632;42.724;23.298;2023-03-14T08:52:31;15.63;;;8.37;;
7181;SDS011;3632;42.724;23.298;2023-03-14T08:54:59;10.00;;;6.77;;
7181;SDS011;3632;42.724;23.298;2023-03-14T08:57:26;11.13;;;5.97;;
7181;SDS011;3632;42.724;23.298;2023-03-14T08:59:53;10.53;;;6.33;;
7181;SDS011;3632;42.724;23.298;2023-03-14T09:02:22;9.40;;;6.33;;
7181;SDS011;3632;42.724;23.298;2023-03-14T09:04:49;13.10;;;7.80;;
7181;SDS011;3632;42.724;23.298;2023-03-14T09:07:17;12.73;;;8.00;;
7181;SDS011;3632;42.724;23.298;2023-03-14T09:09:44;9.60;;;6.63;;
7181;SDS011;3632;42.724;23.298;2023-03-14T09:12:11;7.67;;;6.23;;
7181;SDS011;3632;42.724;23.298;2023-03-14T09:14:38;9.00;;;5.70;;
7181;SDS011;3632;42.724;23.298;2023-03-14T09:17:05;9.53;;;5.93;;
7181;SDS011;3632;42.724;23.298;2023-03-14T09:19:34;8.13;;;5.27;;
7181;SDS011;3632;42.724;23.298;2023-03-14T09:22:01;9.70;;;7.87;;
7181;SDS011;3632;42.724;23.298;2023-03-14T09:24:28;11.30;;;6.37;;
7181;SDS011;3632;42.724;23.298;2023-03-14T09:26:55;17.77;;;12.17;;
7181;SDS011;3632;42.724;23.298;2023-03-14T09:29:22;11.67;;;6.80;;
7181;SDS011;3632;42.724;23.298;2023-03-14T09:31:49;9.27;;;7.00;;
7181;SDS011;3632;42.724;23.298;2023-03-14T09:34:16;10.00;;;5.73;;
7181;SDS011;3632;42.724;23.298;2023-03-14T09:36:45;8.60;;;6.10;;
7181;SDS011;3632;42.724;23.298;2023-03-14T09:39:12;6.33;;;5.63;;
7181;SDS011;3632;42.724;23.298;2023-03-14T09:41:39;11.20;;;6.47;;
7181;SDS011;3632;42.724;23.298;2023-03-14T09:44:09;9.73;;;6.33;;
7181;SDS011;3632;42.724;23.298;2023-03-14T09:46:41;9.73;;;7.67;;
7181;SDS011;3632;42.724;23.298;2023-03-14T09:49:14;7.10;;;5.97;;
7181;SDS011;3632;42.724;23.298;2023-03-14T09:51:48;9.50;;;6.17;;
7181;SDS011;3632;42.724;23.298;2023-03-14T09:54:23;9.03;;;5.53;;
7181;SDS011;3632;42.724;23.298;2023-03-14T09:56:56;8.30;;;5.43;;
7181;SDS011;3632;42.724;23.298;2023-03-14T09:59:23;9.80;;;6.50;;
7181;SDS011;3632;42.724;23.298;2023-03-14T10:01:52;7.87;;;5.30;;
7181;SDS011;3632;42.724;23.298;2023-03-14T10:04:20;14.87;;;10.70;;
7181;SDS011;3632;42.724;23.298;2023-03-14T10:06:52;10.30;;;7.07;;
7181;SDS011;3632;42.724;23.298;2023-03-14T10:09:19;12.10;;;10.33;;
7181;SDS011;3632;42.724;23.298;2023-03-14T10:11:51;13.87;;;9.47;;
7181;SDS011;3632;42.724;23.298;2023-03-14T10:14:28;11.63;;;7.27;;
7181;SDS011;3632;42.724;23.298;2023-03-14T10:16:58;9.50;;;7.03;;
7181;SDS011;3632;42.724;23.298;2023-03-14T10:19:32;8.00;;;6.20;;
7181;SDS011;3632;42.724;23.298;2023-03-14T10:22:02;9.57;;;5.93;;
7181;SDS011;3632;42.724;23.298;2023-03-14T10:24:30;9.33;;;7.40;;
7181;SDS011;3632;42.724;23.298;2023-03-14T10:26:59;11.07;;;7.50;;
7181;SDS011;3632;42.724;23.298;2023-03-14T10:29:27;6.57;;;5.47;;
7181;SDS011;3632;42.724;23.298;2023-03-14T10:31:57;8.53;;;5.30;;
7181;SDS011;3632;42.724;23.298;2023-03-14T10:34:27;6.50;;;4.90;;
7181;SDS011;3632;42.724;23.298;2023-03-14T10:36:56;5.27;;;4.63;;
7181;SDS011;3632;42.724;23.298;2023-03-14T10:39:28;10.20;;;6.77;;
7181;SDS011;3632;42.724;23.298;2023-03-14T10:42:03;11.40;;;7.77;;
7181;SDS011;3632;42.724;23.298;2023-03-14T10:44:33;8.37;;;6.47;;
7181;SDS011;3632;42.724;23.298;2023-03-14T10:47:02;8.00;;;5.43;;
7181;SDS011;3632;42.724;23.298;2023-03-14T10:49:31;9.17;;;5.97;;
7181;SDS011;3632;42.724;23.298;2023-03-14T10:52:02;8.63;;;6.40;;
7181;SDS011;3632;42.724;23.298;2023-03-14T10:54:42;8.60;;;6.67;;
7181;SDS011;3632;42.724;23.298;2023-03-14T10:57:13;10.37;;;6.00;;
7181;SDS011;3632;42.724;23.298;2023-03-14T10:59:41;10.37;;;7.00;;
7181;SDS011;3632;42.724;23.298;2023-03-14T11:02:14;9.63;;;6.47;;
7181;SDS011;3632;42.724;23.298;2023-03-14T11:05:03;11.80;;;6.63;;
7181;SDS011;3632;42.724;23.298;2023-03-14T11:07:42;11.27;;;5.80;;
7181;SDS011;3632;42.724;23.298;2023-03-14T11:10:14;7.03;;;5.23;;
7181;SDS011;3632;42.724;23.298;2023-03-14T11:12:53;9.17;;;6.00;;
7181;SDS011;3632;42.724;23.298;2023-03-14T11:15:32;7.20;;;5.37;;
7181;SDS011;3632;42.724;23.298;2023-03-14T11:20:59;8.70;;;5.40;;
7181;SDS011;3632;42.724;23.298;2023-03-14T11:23:37;8.47;;;6.13;;
7181;SDS011;3632;42.724;23.298;2023-03-14T11:26:17;10.23;;;5.73;;
7181;SDS011;3632;42.724;23.298;2023-03-14T11:28:54;7.60;;;4.70;;
7181;SDS011;3632;42.724;23.298;2023-03-14T11:31:25;7.03;;;4.37;;
7181;SDS011;3632;42.724;23.298;2023-03-14T11:33:55;5.77;;;4.50;;
7181;SDS011;3632;42.724;23.298;2023-03-14T11:36:27;5.13;;;4.40;;
7181;SDS011;3632;42.724;23.298;2023-03-14T11:38:58;8.03;;;5.40;;
7181;SDS011;3632;42.724;23.298;2023-03-14T11:41:29;6.13;;;4.87;;
7181;SDS011;3632;42.724;23.298;2023-03-14T11:44:01;6.23;;;4.30;;
7181;SDS011;3632;42.724;23.298;2023-03-14T11:46:36;8.93;;;6.20;;
7181;SDS011;3632;42.724;23.298;2023-03-14T11:49:11;5.83;;;3.90;;
7181;SDS011;3632;42.724;23.298;2023-03-14T11:51:46;6.37;;;4.07;;
7181;SDS011;3632;42.724;23.298;2023-03-14T11:54:17;8.77;;;7.07;;
7181;SDS011;3632;42.724;23.298;2023-03-14T11:56:54;6.70;;;3.93;;
7181;SDS011;3632;42.724;23.298;2023-03-14T11:59:24;4.50;;;3.60;;
7181;SDS011;3632;42.724;23.298;2023-03-14T12:01:57;5.90;;;3.77;;
7181;SDS011;3632;42.724;23.298;2023-03-14T12:04:32;6.43;;;4.40;;
7181;SDS011;3632;42.724;23.298;2023-03-14T12:07:08;6.43;;;4.10;;
7181;SDS011;3632;42.724;23.298;2023-03-14T12:09:44;9.37;;;5.60;;
7181;SDS011;3632;42.724;23.298;2023-03-14T12:12:16;8.37;;;5.23;;
7181;SDS011;3632;42.724;23.298;2023-03-14T12:14:47;5.53;;;4.90;;
7181;SDS011;3632;42.724;23.298;2023-03-14T12:17:20;8.23;;;3.60;;
7181;SDS011;3632;42.724;23.298;2023-03-14T12:19:55;7.03;;;4.07;;
7181;SDS011;3632;42.724;23.298;2023-03-14T12:22:31;5.20;;;4.20;;
7181;SDS011;3632;42.724;23.298;2023-03-14T12:25:03;3.93;;;3.30;;
7181;SDS011;3632;42.724;23.298;2023-03-14T12:27:47;7.80;;;3.90;;
7181;SDS011;3632;42.724;23.298;2023-03-14T12:30:29;9.77;;;4.30;;
7181;SDS011;3632;42.724;23.298;2023-03-14T12:36:01;6.50;;;3.67;;
7181;SDS011;3632;42.724;23.298;2023-03-14T12:41:40;6.37;;;3.80;;
7181;SDS011;3632;42.724;23.298;2023-03-14T12:53:16;4.87;;;3.40;;
7181;SDS011;3632;42.724;23.298;2023-03-14T12:56:03;6.50;;;3.43;;
7181;SDS011;3632;42.724;23.298;2023-03-14T12:58:38;6.03;;;2.77;;
7181;SDS011;3632;42.724;23.298;2023-03-14T13:01:16;4.83;;;3.00;;
7181;SDS011;3632;42.724;23.298;2023-03-14T13:03:45;3.60;;;2.77;;
7181;SDS011;3632;42.724;23.298;2023-03-14T13:12:03;4.10;;;2.77;;
7181;SDS011;3632;42.724;23.298;2023-03-14T13:14:35;3.53;;;2.40;;
7181;SDS011;3632;42.724;23.298;2023-03-14T13:17:10;3.57;;;2.90;;
7181;SDS011;3632;42.724;23.298;2023-03-14T13:19:38;4.30;;;3.20;;
7181;SDS011;3632;42.724;23.298;2023-03-14T13:22:06;6.20;;;2.50;;
7181;SDS011;3632;42.724;23.298;2023-03-14T13:24:43;6.97;;;3.30;;
7181;SDS011;3632;42.724;23.298;2023-03-14T13:27:14;6.47;;;2.60;;
7181;SDS011;3632;42.724;23.298;2023-03-14T13:29:46;4.73;;;3.10;;
7181;SDS011;3632;42.724;23.298;2023-03-14T13:32:19;4.03;;;3.17;;
7181;SDS011;3632;42.724;23.298;2023-03-14T13:34:47;3.83;;;3.13;;
7181;SDS011;3632;42.724;23.298;2023-03-14T13:37:16;6.30;;;4.20;;
7181;SDS011;3632;42.724;23.298;2023-03-14T13:39:43;5.10;;;2.50;;
7181;SDS011;3632;42.724;23.298;2023-03-14T13:42:15;5.37;;;4.30;;
7181;SDS011;3632;42.724;23.298;2023-03-14T13:44:43;3.13;;;2.57;;
7181;SDS011;3632;42.724;23.298;2023-03-14T13:47:14;5.67;;;3.07;;
7181;SDS011;3632;42.724;23.298;2023-03-14T13:49:44;6.10;;;5.13;;
7181;SDS011;3632;42.724;23.298;2023-03-14T13:54:58;3.43;;;2.60;;
7181;SDS011;3632;42.724;23.298;2023-03-14T13:57:26;4.57;;;2.47;;
7181;SDS011;3632;42.724;23.298;2023-03-14T13:59:58;4.23;;;3.57;;
7181;SDS011;3632;42.724;23.298;2023-03-14T14:02:32;5.80;;;4.20;;
7181;SDS011;3632;42.724;23.298;2023-03-14T14:04:59;4.00;;;3.53;;
7181;SDS011;3632;42.724;23.298;2023-03-14T14:07:27;6.33;;;5.17;;
7181;SDS011;3632;42.724;23.298;2023-03-14T14:09:54;6.77;;;5.00;;
7181;SDS011;3632;42.724;23.298;2023-03-14T14:12:22;4.47;;;2.60;;
7181;SDS011;3632;42.724;23.298;2023-03-14T14:14:56;2.63;;;2.43;;
7181;SDS011;3632;42.724;23.298;2023-03-14T14:17:27;4.43;;;2.20;;
7181;SDS011;3632;42.724;23.298;2023-03-14T14:19:59;3.70;;;2.50;;
7181;SDS011;3632;42.724;23.298;2023-03-14T14:22:30;5.20;;;3.57;;
7181;SDS011;3632;42.724;23.298;2023-03-14T14:24:57;4.07;;;2.90;;
7181;SDS011;3632;42.724;23.298;2023-03-14T14:27:27;7.23;;;3.30;;
7181;SDS011;3632;42.724;23.298;2023-03-14T14:29:58;4.77;;;3.83;;
7181;SDS011;3632;42.724;23.298;2023-03-14T14:32:27;4.93;;;4.33;;
7181;SDS011;3632;42.724;23.298;2023-03-14T14:35:02;3.80;;;3.40;;
7181;SDS011;3632;42.724;23.298;2023-03-14T14:37:30;6.00;;;3.97;;
7181;SDS011;3632;42.724;23.298;2023-03-14T14:39:59;5.03;;;3.27;;
7181;SDS011;3632;42.724;23.298;2023-03-14T14:42:32;8.50;;;5.27;;
7181;SDS011;3632;42.724;23.298;2023-03-14T14:45:02;5.60;;;4.20;;
7181;SDS011;3632;42.724;23.298;2023-03-14T14:47:30;5.60;;;4.17;;
7181;SDS011;3632;42.724;23.298;2023-03-14T14:49:59;4.63;;;4.13;;
7181;SDS011;3632;42.724;23.298;2023-03-14T14:52:37;7.60;;;4.30;;
7181;SDS011;3632;42.724;23.298;2023-03-14T14:55:16;4.77;;;3.17;;
7181;SDS011;3632;42.724;23.298;2023-03-14T14:57:48;4.73;;;4.00;;
7181;SDS011;3632;42.724;23.298;2023-03-14T15:00:17;5.30;;;3.27;;
7181;SDS011;3632;42.724;23.298;2023-03-14T15:02:46;7.13;;;2.43;;
7181;SDS011;3632;42.724;23.298;2023-03-14T15:05:14;8.13;;;3.10;;
7181;SDS011;3632;42.724;23.298;2023-03-14T15:07:44;5.47;;;2.57;;
7181;SDS011;3632;42.724;23.298;2023-03-14T15:10:12;3.70;;;1.90;;
7181;SDS011;3632;42.724;23.298;2023-03-14T15:12:41;6.47;;;2.60;;
7181;SDS011;3632;42.724;23.298;2023-03-14T15:15:08;4.67;;;2.50;;
7181;SDS011;3632;42.724;23.298;2023-03-14T15:17:36;6.50;;;3.17;;
7181;SDS011;3632;42.724;23.298;2023-03-14T15:20:04;7.93;;;2.93;;
7181;SDS011;3632;42.724;23.298;2023-03-14T15:22:35;3.37;;;2.73;;